Aviation Digital Data Service (ADDS)

Output produced by TAFs form (2209 UTC 23 March 2017)
found at http://aviationweather.gov/adds/tafs/
 
KCNY 231743Z 2318/2418 25010G18KT P6SM VCSH SCT050 BKN080 
     TEMPO 2319/2321 -SHRA BKN050 
     FM232100 26015G25KT P6SM -SHRA BKN040 OVC070 
     FM240000 29015G25KT P6SM VCSH BKN050 OVC080 
     FM240700 30010G20KT P6SM VCSH SCT050 BKN080 
     FM241100 30005KT P6SM SCT100